Time;durP1;ratioP1;P1;durP2;ratioP2;P2;SDS_P1;SDS_P2;PMS_P1;PMS_P2;Temp;Humidity;BMP_temperature;BMP_pressure;BME280_temperature;BME280_humidity;BME280_pressure;Samples;Min_cycle;Max_cycle;Signal;HPM_P1;HPM_P2
2022/03/22 00:00:49;;;;;;;19.13;13.32;;;;;;;;;;5066858;28;20024;-74
2022/03/22 00:03:16;;;;;;;19.33;13.02;;;;;;;;;;5066273;28;20047;-74
2022/03/22 00:05:44;;;;;;;16.35;12.93;;;;;;;;;;5069214;28;20033;-74
2022/03/22 00:08:10;;;;;;;19.67;14.38;;;;;;;;;;5065481;28;20021;-75
2022/03/22 00:10:37;;;;;;;21.92;13.98;;;;;;;;;;5066461;28;20075;-74
2022/03/22 00:13:05;;;;;;;25.17;13.68;;;;;;;;;;5065880;28;20084;-74
2022/03/22 00:15:31;;;;;;;19.10;12.00;;;;;;;;;;5068287;28;20020;-74
2022/03/22 00:17:57;;;;;;;20.88;13.95;;;;;;;;;;5067747;28;20025;-75
2022/03/22 00:20:23;;;;;;;20.35;13.48;;;;;;;;;;5063706;28;20054;-74
2022/03/22 00:22:51;;;;;;;20.15;13.15;;;;;;;;;;5066591;28;20104;-74
2022/03/22 00:25:17;;;;;;;19.42;14.05;;;;;;;;;;5065793;28;20040;-74
2022/03/22 00:27:52;;;;;;;21.20;13.68;;;;;;;;;;5066352;28;20115;-73
2022/03/22 00:30:21;;;;;;;17.33;12.57;;;;;;;;;;5066513;28;20020;-74
2022/03/22 00:32:48;;;;;;;19.70;12.90;;;;;;;;;;5065959;28;20032;-74
2022/03/22 00:35:18;;;;;;;18.95;12.25;;;;;;;;;;5064341;28;20108;-74
2022/03/22 00:37:44;;;;;;;21.50;13.23;;;;;;;;;;5063614;28;20033;-74
2022/03/22 00:40:14;;;;;;;18.70;12.73;;;;;;;;;;5064619;28;20354;-73
2022/03/22 00:42:40;;;;;;;22.48;11.82;;;;;;;;;;5061052;28;20083;-74
2022/03/22 00:45:06;;;;;;;20.25;12.30;;;;;;;;;;5064108;28;20594;-73
2022/03/22 00:47:32;;;;;;;19.77;12.65;;;;;;;;;;5065857;28;20239;-74
2022/03/22 00:50:00;;;;;;;15.85;10.85;;;;;;;;;;5066423;28;20024;-74
2022/03/22 00:52:26;;;;;;;18.30;11.07;;;;;;;;;;5063926;28;20052;-74
2022/03/22 00:54:52;;;;;;;18.83;10.52;;;;;;;;;;5061606;28;20043;-73
2022/03/22 00:57:19;;;;;;;16.52;10.70;;;;;;;;;;5062487;28;20028;-74
2022/03/22 01:02:30;;;;;;;20.90;11.73;;;;;;;;;;5066962;28;20043;-75
2022/03/22 01:04:56;;;;;;;16.88;11.25;;;;;;;;;;5061347;28;20032;-73
2022/03/22 01:07:23;;;;;;;17.98;9.77;;;;;;;;;;5068397;28;20028;-74
2022/03/22 01:09:50;;;;;;;16.27;10.30;;;;;;;;;;5065496;28;20027;-74
2022/03/22 01:12:16;;;;;;;16.50;9.90;;;;;;;;;;5067841;28;20037;-73
2022/03/22 01:14:42;;;;;;;17.48;10.75;;;;;;;;;;5070273;28;20051;-74
2022/03/22 01:17:08;;;;;;;14.80;8.98;;;;;;;;;;5068467;28;20052;-73
2022/03/22 01:19:35;;;;;;;15.40;9.90;;;;;;;;;;5070700;28;20029;-73
2022/03/22 01:22:02;;;;;;;15.40;10.40;;;;;;;;;;5069229;28;20054;-73
2022/03/22 01:24:29;;;;;;;17.45;10.20;;;;;;;;;;5068743;28;20024;-74
2022/03/22 01:26:55;;;;;;;17.85;10.50;;;;;;;;;;5071760;28;20099;-74
2022/03/22 01:29:21;;;;;;;16.75;10.60;;;;;;;;;;5069793;28;20033;-74
2022/03/22 01:31:49;;;;;;;16.70;10.73;;;;;;;;;;5070247;28;20020;-74
2022/03/22 01:34:15;;;;;;;15.68;11.02;;;;;;;;;;5067975;28;20031;-73
2022/03/22 01:36:41;;;;;;;13.90;10.50;;;;;;;;;;5070055;28;20056;-73
2022/03/22 01:39:07;;;;;;;14.82;10.38;;;;;;;;;;5069909;28;20017;-73
2022/03/22 01:41:34;;;;;;;18.45;10.90;;;;;;;;;;5071749;28;20021;-74
2022/03/22 01:44:00;;;;;;;15.70;10.35;;;;;;;;;;5067706;28;20111;-74
2022/03/22 01:46:27;;;;;;;19.02;9.95;;;;;;;;;;5067866;28;20681;-74
2022/03/22 01:48:54;;;;;;;12.40;9.40;;;;;;;;;;5067110;28;20687;-74
2022/03/22 01:51:21;;;;;;;15.70;9.48;;;;;;;;;;5083201;28;20048;-74
2022/03/22 01:53:49;;;;;;;14.73;9.38;;;;;;;;;;5069413;28;20027;-74
2022/03/22 01:56:15;;;;;;;13.50;8.73;;;;;;;;;;5067211;28;20040;-74
2022/03/22 01:58:41;;;;;;;15.75;8.52;;;;;;;;;;5070154;28;20017;-75
2022/03/22 02:06:37;;;;;;;13.18;8.25;;;;;;;;;;5066329;28;20757;-73
2022/03/22 02:09:04;;;;;;;13.10;8.27;;;;;;;;;;5067434;28;20032;-73
2022/03/22 02:11:30;;;;;;;12.52;8.20;;;;;;;;;;5067025;28;20650;-73
2022/03/22 02:13:56;;;;;;;13.07;7.78;;;;;;;;;;5067031;28;20089;-73
2022/03/22 02:16:23;;;;;;;16.35;8.85;;;;;;;;;;5080161;28;20047;-73
2022/03/22 02:18:52;;;;;;;14.52;7.75;;;;;;;;;;5069410;28;20032;-74
2022/03/22 02:21:19;;;;;;;11.57;7.88;;;;;;;;;;5068006;28;20051;-74
2022/03/22 02:23:50;;;;;;;11.02;6.82;;;;;;;;;;5071283;28;20025;-74
2022/03/22 02:26:16;;;;;;;12.63;7.10;;;;;;;;;;5069720;28;20406;-74
2022/03/22 02:28:43;;;;;;;14.73;7.75;;;;;;;;;;5067993;28;20382;-72
2022/03/22 02:31:10;;;;;;;10.95;7.28;;;;;;;;;;5064790;28;20065;-74
2022/03/22 02:33:37;;;;;;;12.23;7.78;;;;;;;;;;5065399;28;20028;-73
2022/03/22 02:36:03;;;;;;;9.73;7.03;;;;;;;;;;5065921;28;20029;-74
2022/03/22 02:38:29;;;;;;;11.45;6.35;;;;;;;;;;5068806;28;20036;-74
2022/03/22 02:40:55;;;;;;;11.82;8.70;;;;;;;;;;5065900;28;20406;-74
2022/03/22 02:43:24;;;;;;;12.18;7.88;;;;;;;;;;5065644;28;20028;-73
2022/03/22 02:45:50;;;;;;;14.30;8.27;;;;;;;;;;5064713;28;20117;-75
2022/03/22 02:48:18;;;;;;;12.23;6.80;;;;;;;;;;5068453;28;20028;-73
2022/03/22 02:50:44;;;;;;;12.23;8.18;;;;;;;;;;5068605;28;20082;-73
2022/03/22 02:53:10;;;;;;;11.82;7.53;;;;;;;;;;5066190;28;20032;-73
2022/03/22 02:55:36;;;;;;;13.77;8.10;;;;;;;;;;5063781;28;20028;-73
2022/03/22 02:58:03;;;;;;;13.30;9.30;;;;;;;;;;5064205;28;20032;-74
2022/03/22 03:00:29;;;;;;;14.35;8.25;;;;;;;;;;5066748;28;20108;-74
2022/03/22 03:02:55;;;;;;;14.55;8.35;;;;;;;;;;5067936;28;20025;-75
2022/03/22 03:05:22;;;;;;;13.05;8.38;;;;;;;;;;5067505;28;20036;-74
2022/03/22 03:07:49;;;;;;;13.63;8.82;;;;;;;;;;5067991;28;20077;-73
2022/03/22 03:10:15;;;;;;;11.98;7.82;;;;;;;;;;5064946;28;20555;-74
2022/03/22 03:12:41;;;;;;;16.95;8.20;;;;;;;;;;5080485;28;20067;-74
2022/03/22 03:15:11;;;;;;;13.27;7.88;;;;;;;;;;5063945;28;20095;-74
2022/03/22 03:17:37;;;;;;;11.43;8.32;;;;;;;;;;5064870;28;20029;-74
2022/03/22 03:20:05;;;;;;;13.68;8.57;;;;;;;;;;5067220;28;20283;-73
2022/03/22 03:22:31;;;;;;;12.13;7.68;;;;;;;;;;5075844;28;20059;-74
2022/03/22 03:24:57;;;;;;;12.75;8.23;;;;;;;;;;5066140;28;20380;-74
2022/03/22 03:27:23;;;;;;;15.75;9.85;;;;;;;;;;5066775;28;20028;-74
2022/03/22 03:29:49;;;;;;;11.05;7.97;;;;;;;;;;5068604;28;20073;-74
2022/03/22 03:32:16;;;;;;;13.05;9.43;;;;;;;;;;5066957;28;20032;-73
2022/03/22 03:34:42;;;;;;;14.68;8.75;;;;;;;;;;5067171;28;20024;-73
2022/03/22 03:37:08;;;;;;;16.92;8.48;;;;;;;;;;5067696;28;20035;-74
2022/03/22 03:39:34;;;;;;;10.77;8.02;;;;;;;;;;5067615;28;20029;-74
2022/03/22 03:42:02;;;;;;;11.93;8.95;;;;;;;;;;5070433;28;20038;-74
2022/03/22 03:47:14;;;;;;;15.75;9.80;;;;;;;;;;5066805;28;20086;-74
2022/03/22 03:49:45;;;;;;;16.67;10.10;;;;;;;;;;5067483;28;20043;-76
2022/03/22 03:52:13;;;;;;;20.38;10.77;;;;;;;;;;5069344;28;20031;-74
2022/03/22 03:54:39;;;;;;;16.70;11.13;;;;;;;;;;5067661;28;20027;-73
2022/03/22 03:57:06;;;;;;;21.67;12.30;;;;;;;;;;5067432;28;20474;-74
2022/03/22 03:59:33;;;;;;;22.02;13.30;;;;;;;;;;5067147;28;20028;-74
2022/03/22 04:01:59;;;;;;;21.98;12.73;;;;;;;;;;5069524;28;20465;-74
2022/03/22 04:04:25;;;;;;;19.42;11.65;;;;;;;;;;5067492;28;20086;-74
2022/03/22 04:06:51;;;;;;;21.38;12.75;;;;;;;;;;5064293;28;20363;-74
2022/03/22 04:09:17;;;;;;;24.98;15.20;;;;;;;;;;5065659;28;20104;-74
2022/03/22 04:11:44;;;;;;;25.20;13.90;;;;;;;;;;5062497;28;20048;-73
2022/03/22 04:14:11;;;;;;;25.30;14.77;;;;;;;;;;5067817;28;20059;-74
2022/03/22 04:16:37;;;;;;;27.38;14.32;;;;;;;;;;5061496;28;20478;-74
2022/03/22 04:19:05;;;;;;;24.27;14.57;;;;;;;;;;5067323;28;20432;-73
2022/03/22 04:21:31;;;;;;;24.65;13.55;;;;;;;;;;5062926;28;20025;-73
2022/03/22 04:23:59;;;;;;;21.63;13.63;;;;;;;;;;5062114;28;20036;-73
2022/03/22 04:26:25;;;;;;;27.55;15.73;;;;;;;;;;5065169;28;20048;-73
2022/03/22 04:34:21;;;;;;;22.73;14.55;;;;;;;;;;5067166;28;20135;-74
2022/03/22 04:36:57;;;;;;;24.27;15.05;;;;;;;;;;5065776;28;20028;-73
2022/03/22 04:39:24;;;;;;;26.38;13.40;;;;;;;;;;5066820;28;20028;-73
2022/03/22 04:41:50;;;;;;;28.15;15.50;;;;;;;;;;5059034;28;20609;-73
2022/03/22 04:44:19;;;;;;;25.08;15.02;;;;;;;;;;5063055;28;20043;-74
2022/03/22 04:46:46;;;;;;;38.08;17.92;;;;;;;;;;5063784;28;20032;-74
2022/03/22 04:49:12;;;;;;;26.60;16.95;;;;;;;;;;5067873;28;20020;-74
2022/03/22 04:57:08;;;;;;;29.98;16.08;;;;;;;;;;5067415;28;20121;-74
2022/03/22 04:59:34;;;;;;;33.60;17.23;;;;;;;;;;5070221;28;20059;-73
2022/03/22 05:02:01;;;;;;;28.52;16.75;;;;;;;;;;5068924;28;20027;-74
2022/03/22 05:04:27;;;;;;;29.83;17.23;;;;;;;;;;5069050;28;20032;-74
2022/03/22 05:06:54;;;;;;;31.38;18.00;;;;;;;;;;5064745;28;20119;-73
2022/03/22 05:09:20;;;;;;;33.08;17.88;;;;;;;;;;5069708;28;20023;-73
2022/03/22 05:11:46;;;;;;;35.78;20.00;;;;;;;;;;5067437;28;20123;-73
2022/03/22 05:14:12;;;;;;;35.50;18.58;;;;;;;;;;5068608;28;20036;-73
2022/03/22 05:16:39;;;;;;;32.00;18.63;;;;;;;;;;5067071;28;20031;-74
2022/03/22 05:19:05;;;;;;;34.65;19.50;;;;;;;;;;5068317;28;20140;-74
2022/03/22 05:21:31;;;;;;;30.50;18.80;;;;;;;;;;5069466;28;20115;-75
2022/03/22 05:23:58;;;;;;;34.08;18.83;;;;;;;;;;5069718;28;20029;-72
2022/03/22 05:26:27;;;;;;;31.73;18.92;;;;;;;;;;5065707;28;20658;-73
2022/03/22 05:28:53;;;;;;;33.92;18.27;;;;;;;;;;5069448;28;20110;-73
2022/03/22 05:31:21;;;;;;;31.13;19.33;;;;;;;;;;5068912;28;20543;-73
2022/03/22 05:33:48;;;;;;;33.00;17.73;;;;;;;;;;5068974;28;20470;-74
2022/03/22 05:36:14;;;;;;;33.75;18.27;;;;;;;;;;5070504;28;20020;-74
2022/03/22 05:38:40;;;;;;;37.85;18.42;;;;;;;;;;5066937;28;20088;-74
2022/03/22 05:41:08;;;;;;;30.33;17.17;;;;;;;;;;5069775;28;20063;-74
2022/03/22 05:43:35;;;;;;;34.33;19.63;;;;;;;;;;5069902;28;20020;-73
2022/03/22 05:46:01;;;;;;;36.92;18.23;;;;;;;;;;5071016;28;20024;-74
2022/03/22 05:48:29;;;;;;;36.72;18.05;;;;;;;;;;5069149;28;20024;-74
2022/03/22 05:50:55;;;;;;;33.78;18.55;;;;;;;;;;5072690;28;20032;-75
2022/03/22 05:53:21;;;;;;;34.70;17.70;;;;;;;;;;5064884;28;20047;-73
2022/03/22 05:55:47;;;;;;;33.92;16.92;;;;;;;;;;5067215;28;20608;-73
2022/03/22 05:58:14;;;;;;;35.08;17.73;;;;;;;;;;5068877;28;20471;-75
2022/03/22 06:00:40;;;;;;;29.38;16.52;;;;;;;;;;5069723;28;20036;-74
2022/03/22 06:03:06;;;;;;;32.92;18.42;;;;;;;;;;5068964;28;20028;-74
2022/03/22 06:05:33;;;;;;;35.30;18.08;;;;;;;;;;5067060;28;20029;-72
2022/03/22 06:07:59;;;;;;;33.08;18.65;;;;;;;;;;5068160;28;20033;-73
2022/03/22 06:10:27;;;;;;;33.55;18.70;;;;;;;;;;5069409;28;20390;-73
2022/03/22 06:12:57;;;;;;;36.15;18.60;;;;;;;;;;5066476;28;20756;-72
2022/03/22 06:15:24;;;;;;;38.80;20.02;;;;;;;;;;5078742;28;20032;-73
2022/03/22 06:17:51;;;;;;;37.10;20.15;;;;;;;;;;5065797;28;20056;-74
2022/03/22 06:20:18;;;;;;;37.40;20.65;;;;;;;;;;5068492;28;20490;-74
2022/03/22 06:22:48;;;;;;;34.03;19.70;;;;;;;;;;5070720;28;20032;-74
2022/03/22 06:25:15;;;;;;;39.67;20.45;;;;;;;;;;5070187;28;20033;-74
2022/03/22 06:27:41;;;;;;;40.17;19.52;;;;;;;;;;5071489;28;20032;-73
2022/03/22 06:30:09;;;;;;;33.80;19.05;;;;;;;;;;5067238;28;20374;-73
2022/03/22 06:32:42;;;;;;;36.10;20.27;;;;;;;;;;5064337;28;20478;-73
2022/03/22 06:35:10;;;;;;;33.10;19.63;;;;;;;;;;5069946;28;20013;-73
2022/03/22 06:37:36;;;;;;;33.15;20.00;;;;;;;;;;5064139;28;20028;-73
2022/03/22 06:40:03;;;;;;;35.58;20.00;;;;;;;;;;5069308;28;20012;-73
2022/03/22 06:42:29;;;;;;;33.05;19.55;;;;;;;;;;5070255;28;20090;-74
2022/03/22 06:44:55;;;;;;;37.88;19.45;;;;;;;;;;5066869;28;20066;-74
2022/03/22 06:47:23;;;;;;;34.70;18.35;;;;;;;;;;5071423;28;20039;-74
2022/03/22 06:49:49;;;;;;;35.95;19.88;;;;;;;;;;5064605;28;20024;-74
2022/03/22 06:52:15;;;;;;;37.10;20.17;;;;;;;;;;5070071;28;20060;-73
2022/03/22 06:54:41;;;;;;;34.90;18.80;;;;;;;;;;5070151;28;20394;-74
2022/03/22 06:57:07;;;;;;;30.55;17.50;;;;;;;;;;5065641;28;20025;-74
2022/03/22 06:59:35;;;;;;;28.83;17.55;;;;;;;;;;5069221;28;20085;-74
2022/03/22 07:02:01;;;;;;;35.42;18.42;;;;;;;;;;5067688;28;20033;-73
2022/03/22 07:04:27;;;;;;;31.15;18.05;;;;;;;;;;5065339;28;20025;-73
2022/03/22 07:06:54;;;;;;;31.23;17.38;;;;;;;;;;5066252;28;20024;-73
2022/03/22 07:09:21;;;;;;;32.35;16.80;;;;;;;;;;5065438;28;20052;-73
2022/03/22 07:11:49;;;;;;;31.67;18.23;;;;;;;;;;5065497;28;20055;-73
2022/03/22 07:14:16;;;;;;;33.67;18.40;;;;;;;;;;5064498;28;20025;-73
2022/03/22 07:16:42;;;;;;;27.95;16.05;;;;;;;;;;5062888;28;20046;-73
2022/03/22 07:19:08;;;;;;;32.83;18.98;;;;;;;;;;5067966;28;20115;-74
2022/03/22 07:21:35;;;;;;;34.67;18.05;;;;;;;;;;5068325;28;20036;-73
2022/03/22 07:24:01;;;;;;;31.77;18.08;;;;;;;;;;5062569;28;20551;-73
2022/03/22 07:26:27;;;;;;;31.02;16.65;;;;;;;;;;5065110;28;20028;-75
2022/03/22 07:28:53;;;;;;;32.13;17.00;;;;;;;;;;5064562;28;20036;-72
2022/03/22 07:31:19;;;;;;;34.63;16.95;;;;;;;;;;5063624;28;20115;-73
2022/03/22 07:33:45;;;;;;;33.08;17.52;;;;;;;;;;5065508;28;20047;-74
2022/03/22 07:36:11;;;;;;;30.75;17.08;;;;;;;;;;5064421;28;20028;-74
2022/03/22 07:38:38;;;;;;;36.80;17.73;;;;;;;;;;5067396;28;20020;-74
2022/03/22 07:41:04;;;;;;;31.45;17.45;;;;;;;;;;5068589;28;20028;-74
2022/03/22 07:43:30;;;;;;;30.38;17.33;;;;;;;;;;5069116;28;20074;-73
2022/03/22 07:45:56;;;;;;;31.13;17.10;;;;;;;;;;5064717;28;20032;-73
2022/03/22 07:48:23;;;;;;;29.02;15.27;;;;;;;;;;5068756;28;20101;-74
2022/03/22 07:53:34;;;;;;;29.73;16.65;;;;;;;;;;5068861;28;20105;-75
2022/03/22 07:56:00;;;;;;;26.95;16.27;;;;;;;;;;5068426;28;20063;-74
2022/03/22 07:58:26;;;;;;;27.00;16.25;;;;;;;;;;5068498;28;20024;-73
2022/03/22 08:00:52;;;;;;;28.65;16.13;;;;;;;;;;5066480;28;20025;-73
2022/03/22 08:03:18;;;;;;;25.98;14.95;;;;;;;;;;5066616;28;20474;-74
2022/03/22 08:05:46;;;;;;;24.98;15.35;;;;;;;;;;5063988;28;20037;-74
2022/03/22 08:08:12;;;;;;;33.50;16.38;;;;;;;;;;5068352;28;20036;-73
2022/03/22 08:10:38;;;;;;;29.20;15.77;;;;;;;;;;5067894;28;20477;-74
2022/03/22 08:13:08;;;;;;;28.13;14.38;;;;;;;;;;5066906;28;20592;-74
2022/03/22 08:15:34;;;;;;;23.90;14.65;;;;;;;;;;5066800;28;20031;-74
2022/03/22 08:18:00;;;;;;;22.63;13.75;;;;;;;;;;5067504;28;20024;-75
2022/03/22 08:20:27;;;;;;;27.10;15.10;;;;;;;;;;5062578;28;20037;-74
2022/03/22 08:22:59;;;;;;;20.35;12.73;;;;;;;;;;5063901;28;20032;-74
2022/03/22 08:25:28;;;;;;;23.95;12.98;;;;;;;;;;5065304;28;20032;-74
2022/03/22 08:27:55;;;;;;;21.00;14.02;;;;;;;;;;5069402;28;20035;-74
2022/03/22 08:30:22;;;;;;;18.05;12.30;;;;;;;;;;5072848;28;20035;-74
2022/03/22 08:32:51;;;;;;;17.25;11.60;;;;;;;;;;5072952;28;20512;-75
2022/03/22 08:35:20;;;;;;;19.50;10.93;;;;;;;;;;5074034;28;20478;-74
2022/03/22 08:37:47;;;;;;;21.42;11.95;;;;;;;;;;5073104;28;20578;-74
2022/03/22 08:40:16;;;;;;;20.67;11.88;;;;;;;;;;5073080;28;20046;-74
2022/03/22 08:42:46;;;;;;;19.73;11.70;;;;;;;;;;5070997;28;20051;-73
2022/03/22 08:45:13;;;;;;;18.30;11.52;;;;;;;;;;5074393;28;20075;-74
2022/03/22 08:47:40;;;;;;;18.88;11.43;;;;;;;;;;5071037;28;20029;-74
2022/03/22 08:50:07;;;;;;;21.20;11.20;;;;;;;;;;5071024;28;20023;-75
2022/03/22 08:52:35;;;;;;;16.40;9.68;;;;;;;;;;5072010;28;20043;-75
2022/03/22 08:55:01;;;;;;;22.80;11.93;;;;;;;;;;5071715;28;20024;-74
2022/03/22 08:57:27;;;;;;;17.17;10.63;;;;;;;;;;5070320;28;20436;-74
2022/03/22 08:59:53;;;;;;;20.40;10.65;;;;;;;;;;5069443;28;20027;-75
2022/03/22 09:02:19;;;;;;;15.48;9.57;;;;;;;;;;5071482;28;20055;-75
2022/03/22 09:07:30;;;;;;;19.90;12.15;;;;;;;;;;5069183;28;20047;-75
2022/03/22 09:09:56;;;;;;;17.75;11.23;;;;;;;;;;5072031;28;20480;-74
2022/03/22 09:12:22;;;;;;;23.15;12.85;;;;;;;;;;5071008;28;20041;-74
2022/03/22 09:14:50;;;;;;;18.63;11.07;;;;;;;;;;5069908;28;20025;-74
2022/03/22 09:17:16;;;;;;;17.85;10.63;;;;;;;;;;5071190;28;20020;-75
2022/03/22 09:19:42;;;;;;;14.00;9.77;;;;;;;;;;5068329;28;20013;-75
2022/03/22 09:22:10;;;;;;;15.25;9.57;;;;;;;;;;5071005;28;20024;-75
2022/03/22 09:24:36;;;;;;;13.35;9.07;;;;;;;;;;5072098;28;20045;-74
2022/03/22 09:27:02;;;;;;;17.48;9.38;;;;;;;;;;5073035;28;20081;-75
2022/03/22 09:29:28;;;;;;;18.17;8.95;;;;;;;;;;5073267;28;20024;-76
2022/03/22 09:31:55;;;;;;;11.88;8.35;;;;;;;;;;5072593;28;20090;-76
2022/03/22 09:34:25;;;;;;;17.35;9.57;;;;;;;;;;5071366;28;20470;-73
2022/03/22 09:36:51;;;;;;;13.02;8.82;;;;;;;;;;5069703;28;20025;-76
2022/03/22 09:39:19;;;;;;;14.23;7.97;;;;;;;;;;5068186;28;20020;-75
2022/03/22 09:41:46;;;;;;;13.18;8.65;;;;;;;;;;5066731;28;20028;-75
2022/03/22 09:44:12;;;;;;;11.07;6.68;;;;;;;;;;5071345;28;20036;-75
2022/03/22 09:46:38;;;;;;;9.32;5.90;;;;;;;;;;5069955;28;20031;-74
2022/03/22 09:49:09;;;;;;;9.65;7.07;;;;;;;;;;5067865;28;20386;-74
2022/03/22 09:51:46;;;;;;;9.25;5.75;;;;;;;;;;5071841;28;20421;-75
2022/03/22 09:54:16;;;;;;;9.35;6.63;;;;;;;;;;5066856;28;20029;-74
2022/03/22 09:56:43;;;;;;;11.82;6.35;;;;;;;;;;5066118;28;20056;-76
2022/03/22 09:59:09;;;;;;;9.38;6.47;;;;;;;;;;5069839;28;20021;-75
2022/03/22 10:01:35;;;;;;;10.23;6.13;;;;;;;;;;5069886;28;20040;-76
2022/03/22 10:04:13;;;;;;;9.82;5.70;;;;;;;;;;5070631;28;20024;-74
2022/03/22 10:06:40;;;;;;;10.80;6.57;;;;;;;;;;5070840;28;20056;-75
2022/03/22 10:09:06;;;;;;;10.10;5.93;;;;;;;;;;5072472;28;20091;-75
2022/03/22 10:11:36;;;;;;;9.43;5.63;;;;;;;;;;5083158;28;20032;-74
2022/03/22 10:14:03;;;;;;;13.30;5.10;;;;;;;;;;5084800;28;20033;-74
2022/03/22 10:16:29;;;;;;;8.13;5.57;;;;;;;;;;5068836;28;20525;-74
2022/03/22 10:18:55;;;;;;;9.77;6.05;;;;;;;;;;5067221;28;20040;-74
2022/03/22 10:21:22;;;;;;;8.07;5.80;;;;;;;;;;5069708;28;20036;-74
2022/03/22 10:23:52;;;;;;;8.25;5.63;;;;;;;;;;5067703;28;20082;-74
2022/03/22 10:26:18;;;;;;;11.13;5.50;;;;;;;;;;5069949;28;20037;-74
2022/03/22 10:28:55;;;;;;;9.10;5.97;;;;;;;;;;5069667;28;20077;-73
2022/03/22 10:31:34;;;;;;;10.07;6.57;;;;;;;;;;5070019;28;20024;-75
2022/03/22 10:34:01;;;;;;;7.07;5.38;;;;;;;;;;5067651;28;20147;-74
2022/03/22 10:36:27;;;;;;;10.10;5.45;;;;;;;;;;5069762;28;20499;-75
2022/03/22 10:38:57;;;;;;;8.50;5.82;;;;;;;;;;5069643;28;20035;-74
2022/03/22 10:41:24;;;;;;;9.77;5.80;;;;;;;;;;5069540;28;20028;-76
2022/03/22 10:44:00;;;;;;;8.85;5.40;;;;;;;;;;5085552;28;20482;-74
2022/03/22 10:46:27;;;;;;;10.23;5.70;;;;;;;;;;5070286;28;20028;-75
2022/03/22 10:49:01;;;;;;;8.52;6.45;;;;;;;;;;5073889;28;20101;-74
2022/03/22 10:51:34;;;;;;;7.10;5.43;;;;;;;;;;5065833;28;20039;-75
2022/03/22 10:54:00;;;;;;;7.95;5.93;;;;;;;;;;5068594;28;20028;-74
2022/03/22 10:56:27;;;;;;;11.48;6.53;;;;;;;;;;5069509;28;20042;-75
2022/03/22 10:58:55;;;;;;;8.80;6.03;;;;;;;;;;5069159;28;20029;-74
2022/03/22 11:01:22;;;;;;;11.45;7.05;;;;;;;;;;5066838;28;20481;-75
2022/03/22 11:03:48;;;;;;;12.65;7.60;;;;;;;;;;5068335;28;20158;-75
2022/03/22 11:06:16;;;;;;;11.60;6.50;;;;;;;;;;5069427;28;20482;-75
2022/03/22 11:08:42;;;;;;;19.63;8.07;;;;;;;;;;5070041;28;20025;-75
2022/03/22 11:11:09;;;;;;;12.77;7.93;;;;;;;;;;5069402;28;20021;-75
2022/03/22 11:13:36;;;;;;;15.07;8.43;;;;;;;;;;5069136;28;20048;-75
2022/03/22 11:16:02;;;;;;;11.82;7.18;;;;;;;;;;5073678;28;20021;-75
2022/03/22 11:18:30;;;;;;;11.55;7.35;;;;;;;;;;5071999;28;20028;-74
2022/03/22 11:20:57;;;;;;;12.75;7.10;;;;;;;;;;5069037;28;20573;-75
2022/03/22 11:23:26;;;;;;;14.50;8.45;;;;;;;;;;5065647;28;20043;-75
2022/03/22 11:25:52;;;;;;;15.75;8.07;;;;;;;;;;5067343;28;20452;-74
2022/03/22 11:28:24;;;;;;;15.02;8.38;;;;;;;;;;5068544;28;20121;-75
2022/03/22 11:30:51;;;;;;;14.98;8.02;;;;;;;;;;5067680;28;20028;-74
2022/03/22 11:36:16;;;;;;;12.98;8.20;;;;;;;;;;5068934;28;20090;-75
2022/03/22 11:38:46;;;;;;;10.90;7.28;;;;;;;;;;5068419;28;20378;-75
2022/03/22 11:44:19;;;;;;;11.93;7.28;;;;;;;;;;5068707;28;20054;-75
2022/03/22 11:46:46;;;;;;;11.68;7.60;;;;;;;;;;5068022;28;20066;-74
2022/03/22 11:49:17;;;;;;;11.50;7.28;;;;;;;;;;5067338;28;20346;-74
2022/03/22 11:51:54;;;;;;;12.57;7.57;;;;;;;;;;5068281;28;20022;-75
2022/03/22 11:54:21;;;;;;;12.02;6.95;;;;;;;;;;5064041;28;20029;-75
2022/03/22 11:56:56;;;;;;;14.75;7.20;;;;;;;;;;5067336;28;20029;-75
2022/03/22 11:59:23;;;;;;;9.25;6.75;;;;;;;;;;5068109;28;20032;-74
2022/03/22 12:01:58;;;;;;;11.10;7.47;;;;;;;;;;5064572;28;20028;-76
2022/03/22 12:04:36;;;;;;;9.85;7.03;;;;;;;;;;5068587;28;20032;-75
2022/03/22 12:07:03;;;;;;;15.40;7.78;;;;;;;;;;5067774;28;20399;-74
2022/03/22 12:09:29;;;;;;;11.70;7.00;;;;;;;;;;5068434;28;20056;-75
2022/03/22 12:11:56;;;;;;;13.00;7.10;;;;;;;;;;5067232;28;20048;-75
2022/03/22 12:14:27;;;;;;;15.18;7.90;;;;;;;;;;5068583;28;20051;-76
2022/03/22 12:16:54;;;;;;;16.45;7.70;;;;;;;;;;5067350;28;20032;-75
2022/03/22 12:19:27;;;;;;;13.35;8.23;;;;;;;;;;5067206;28;20078;-75
2022/03/22 12:21:54;;;;;;;10.50;7.72;;;;;;;;;;5068322;28;20035;-75
2022/03/22 12:24:21;;;;;;;11.40;7.82;;;;;;;;;;5067498;28;20036;-76
2022/03/22 12:26:48;;;;;;;15.35;8.05;;;;;;;;;;5069804;28;20051;-75
2022/03/22 12:29:14;;;;;;;12.55;8.52;;;;;;;;;;5068164;28;20107;-75
2022/03/22 12:31:50;;;;;;;13.30;7.88;;;;;;;;;;5069402;28;20031;-75
2022/03/22 12:34:17;;;;;;;13.73;7.93;;;;;;;;;;5068211;28;20564;-75
2022/03/22 12:36:43;;;;;;;15.88;7.43;;;;;;;;;;5067968;28;20033;-75
2022/03/22 12:39:09;;;;;;;11.93;7.55;;;;;;;;;;5068796;28;20027;-76
2022/03/22 12:41:35;;;;;;;12.95;7.63;;;;;;;;;;5069744;28;20506;-74
2022/03/22 12:44:02;;;;;;;13.65;7.88;;;;;;;;;;5067513;28;20038;-76
2022/03/22 12:46:28;;;;;;;14.63;8.48;;;;;;;;;;5066681;28;20338;-75
2022/03/22 12:48:55;;;;;;;12.15;8.02;;;;;;;;;;5064301;28;20061;-75
2022/03/22 12:51:25;;;;;;;10.93;7.72;;;;;;;;;;5068949;28;21101;-75
2022/03/22 12:53:51;;;;;;;10.40;7.25;;;;;;;;;;5066667;28;20052;-75
2022/03/22 12:56:18;;;;;;;13.77;7.43;;;;;;;;;;5064820;28;20029;-75
2022/03/22 12:58:44;;;;;;;11.45;7.82;;;;;;;;;;5066242;28;20836;-75
2022/03/22 13:01:10;;;;;;;11.98;7.90;;;;;;;;;;5063645;28;20063;-74
2022/03/22 13:03:38;;;;;;;10.75;7.78;;;;;;;;;;5065670;28;20070;-76
2022/03/22 13:06:06;;;;;;;12.40;7.40;;;;;;;;;;5068259;28;20028;-75
2022/03/22 13:11:27;;;;;;;12.57;7.53;;;;;;;;;;5064479;28;20097;-76
2022/03/22 13:16:58;;;;;;;11.45;8.50;;;;;;;;;;5070319;28;20102;-76
2022/03/22 13:19:29;;;;;;;15.35;7.95;;;;;;;;;;5062577;28;20146;-78
2022/03/22 13:21:56;;;;;;;12.90;8.38;;;;;;;;;;5064131;28;20025;-77
2022/03/22 13:24:26;;;;;;;11.55;7.70;;;;;;;;;;5066410;28;20125;-79
2022/03/22 13:27:02;;;;;;;7.60;4.70;;;;;;;;;;5084959;28;20104;-79
2022/03/22 13:29:36;;;;;;;8.15;6.50;;;;;;;;;;5067286;28;20420;-80
2022/03/22 13:32:06;;;;;;;10.85;7.80;;;;;;;;;;5068084;28;20125;-78
2022/03/22 13:34:34;;;;;;;9.68;4.85;;;;;;;;;;5068588;28;20095;-75
2022/03/22 13:37:07;;;;;;;5.45;4.00;;;;;;;;;;5078728;28;20032;-75
2022/03/22 13:39:33;;;;;;;7.28;4.55;;;;;;;;;;5072979;28;20025;-79
2022/03/22 13:42:05;;;;;;;6.50;4.60;;;;;;;;;;5071286;28;20059;-77
2022/03/22 13:44:32;;;;;;;7.90;4.72;;;;;;;;;;5077632;28;20432;-74
2022/03/22 13:46:59;;;;;;;7.40;4.88;;;;;;;;;;5078816;28;20035;-74
2022/03/22 13:49:35;;;;;;;9.07;5.05;;;;;;;;;;5078128;28;20496;-74
2022/03/22 13:52:01;;;;;;;10.32;4.53;;;;;;;;;;5079051;28;20032;-74
2022/03/22 13:54:27;;;;;;;6.57;4.60;;;;;;;;;;5077251;28;20096;-71
2022/03/22 13:57:04;;;;;;;7.80;4.95;;;;;;;;;;5076976;28;20025;-75
2022/03/22 13:59:30;;;;;;;7.07;4.85;;;;;;;;;;5077035;28;20029;-74
2022/03/22 14:01:56;;;;;;;8.30;5.10;;;;;;;;;;5077392;28;20501;-74
2022/03/22 14:04:22;;;;;;;6.10;4.57;;;;;;;;;;5069492;28;20051;-74
2022/03/22 14:06:48;;;;;;;8.35;5.43;;;;;;;;;;5065661;28;20032;-75
2022/03/22 14:09:14;;;;;;;6.32;5.40;;;;;;;;;;5080920;28;20032;-75
2022/03/22 14:11:43;;;;;;;8.82;5.55;;;;;;;;;;5066871;28;20056;-76
2022/03/22 14:14:09;;;;;;;7.32;5.10;;;;;;;;;;5071789;28;20090;-75
2022/03/22 14:16:35;;;;;;;7.75;5.28;;;;;;;;;;5073018;28;20020;-76
2022/03/22 14:19:01;;;;;;;7.60;5.07;;;;;;;;;;5070465;28;20028;-74
2022/03/22 14:21:27;;;;;;;7.53;5.15;;;;;;;;;;5070453;28;20513;-75
2022/03/22 14:23:53;;;;;;;7.30;4.60;;;;;;;;;;5067710;28;20036;-75
2022/03/22 14:26:19;;;;;;;8.15;5.43;;;;;;;;;;5069473;28;20035;-74
2022/03/22 14:28:45;;;;;;;9.85;5.93;;;;;;;;;;5068755;28;20063;-74
2022/03/22 14:31:11;;;;;;;6.88;4.50;;;;;;;;;;5072794;28;20036;-76
2022/03/22 14:33:37;;;;;;;7.57;4.75;;;;;;;;;;5068224;28;20462;-74
2022/03/22 14:36:04;;;;;;;8.30;5.55;;;;;;;;;;5070798;28;20108;-75
2022/03/22 14:38:30;;;;;;;9.52;5.18;;;;;;;;;;5069217;28;20097;-75
2022/03/22 14:41:03;;;;;;;7.57;5.65;;;;;;;;;;5068284;28;20020;-76
2022/03/22 14:43:30;;;;;;;6.10;4.32;;;;;;;;;;5070494;28;20028;-76
2022/03/22 14:45:56;;;;;;;6.57;4.45;;;;;;;;;;5070292;28;20037;-76
2022/03/22 14:48:23;;;;;;;5.82;4.28;;;;;;;;;;5069927;28;20033;-75
2022/03/22 14:50:50;;;;;;;5.72;4.63;;;;;;;;;;5067642;28;20139;-75
2022/03/22 14:58:55;;;;;;;6.13;5.20;;;;;;;;;;5071437;28;20051;-75
2022/03/22 15:01:28;;;;;;;6.55;4.93;;;;;;;;;;5079828;28;20021;-76
2022/03/22 15:03:55;;;;;;;7.13;4.93;;;;;;;;;;5071390;28;20036;-76
2022/03/22 15:06:22;;;;;;;8.35;5.40;;;;;;;;;;5068476;28;20139;-76
2022/03/22 15:08:48;;;;;;;9.20;4.70;;;;;;;;;;5072911;28;20086;-75
2022/03/22 15:11:14;;;;;;;5.40;4.18;;;;;;;;;;5070556;28;20051;-76